createdAt,value
2019-03-05T00:02:04.236Z,21.07
2019-03-05T00:04:34.466Z,24.40
2019-03-05T00:07:03.370Z,28.07
2019-03-05T00:09:34.388Z,24.87
2019-03-05T00:12:03.507Z,18.07
2019-03-05T00:14:33.398Z,19.00
2019-03-05T00:17:04.166Z,29.53
2019-03-05T00:19:32.939Z,21.73
2019-03-05T00:22:02.848Z,20.10
2019-03-05T00:24:43.206Z,24.43
2019-03-05T00:27:12.102Z,30.63
2019-03-05T00:29:52.091Z,27.07
2019-03-05T00:32:22.290Z,24.70
2019-03-05T00:35:09.152Z,27.17
2019-03-05T00:37:49.998Z,24.27
2019-03-05T00:40:28.196Z,30.57
2019-03-05T00:43:02.920Z,26.73
2019-03-05T00:47:47.732Z,25.33
2019-03-05T00:50:24.140Z,29.83
2019-03-05T00:53:00.678Z,32.10
2019-03-05T00:56:39.063Z,30.97
2019-03-05T00:59:22.884Z,28.20
2019-03-05T01:03:00.762Z,24.63
2019-03-05T01:05:43.328Z,26.50
2019-03-05T01:08:13.363Z,37.80
2019-03-05T01:10:43.047Z,29.73
2019-03-05T01:13:12.540Z,27.77
2019-03-05T01:15:41.577Z,26.87
2019-03-05T01:18:10.365Z,38.73
2019-03-05T01:20:39.157Z,20.30
2019-03-05T01:23:08.028Z,21.13
2019-03-05T01:25:36.939Z,28.30
2019-03-05T01:28:05.734Z,28.00
2019-03-05T01:31:40.214Z,32.10
2019-03-05T01:34:21.719Z,29.37
2019-03-05T01:36:54.664Z,27.07
2019-03-05T01:39:32.316Z,22.50
2019-03-05T01:42:01.823Z,32.37
2019-03-05T01:44:30.623Z,23.57
2019-03-05T01:47:01.147Z,21.87
2019-03-05T01:49:30.200Z,16.43
2019-03-05T01:51:59.507Z,12.37
2019-03-05T01:54:30.021Z,7.27
2019-03-05T01:56:59.609Z,18.20
2019-03-05T01:59:28.396Z,10.43
2019-03-05T02:01:57.727Z,14.87
2019-03-05T02:04:26.507Z,10.77
2019-03-05T02:06:57.011Z,9.17
2019-03-05T02:09:27.662Z,9.77
2019-03-05T02:11:57.008Z,15.27
2019-03-05T02:14:25.798Z,12.80
2019-03-05T02:16:55.301Z,14.47
2019-03-05T02:19:37.100Z,11.63
2019-03-05T02:22:09.094Z,9.17
2019-03-05T02:25:51.630Z,11.80
2019-03-05T02:30:34.648Z,6.80
2019-03-05T02:33:13.924Z,7.60
2019-03-05T02:35:52.628Z,12.90
2019-03-05T02:38:32.241Z,10.57
2019-03-05T02:41:19.187Z,10.67
2019-03-05T02:44:02.984Z,16.47
2019-03-05T02:47:11.430Z,14.67
2019-03-05T02:50:10.339Z,16.13
2019-03-05T02:53:00.361Z,8.80
2019-03-05T02:55:38.740Z,15.23
2019-03-05T02:58:07.592Z,14.03
2019-03-05T03:01:40.692Z,15.27
2019-03-05T03:04:16.024Z,11.23
2019-03-05T03:06:44.907Z,13.33
2019-03-05T03:10:18.867Z,19.57
2019-03-05T03:12:47.732Z,16.17
2019-03-05T03:15:17.493Z,16.03
2019-03-05T03:17:47.367Z,16.87
2019-03-05T03:20:18.239Z,14.03
2019-03-05T03:22:47.055Z,12.77
2019-03-05T03:25:20.185Z,18.77
2019-03-05T03:27:48.972Z,12.40
2019-03-05T03:30:21.055Z,12.03
2019-03-05T03:32:50.795Z,11.00
2019-03-05T03:35:20.047Z,10.67
2019-03-05T03:37:48.803Z,16.77
2019-03-05T03:40:23.421Z,23.00
2019-03-05T03:42:53.612Z,19.20
2019-03-05T03:45:25.125Z,12.07
2019-03-05T03:47:53.887Z,18.07
2019-03-05T03:50:22.749Z,13.60
2019-03-05T03:52:52.540Z,17.30
2019-03-05T03:55:22.425Z,16.30
2019-03-05T03:57:52.366Z,16.57
2019-03-05T04:00:22.585Z,19.10
2019-03-05T04:02:51.492Z,18.07
2019-03-05T04:05:21.000Z,14.90
2019-03-05T04:07:50.036Z,17.70
2019-03-05T04:10:18.831Z,19.17
2019-03-05T04:12:48.581Z,14.00
2019-03-05T04:15:19.001Z,12.60
2019-03-05T04:17:47.829Z,17.40
2019-03-05T04:20:27.988Z,18.50
2019-03-05T04:22:57.812Z,15.23
2019-03-05T04:25:26.593Z,12.60
2019-03-05T04:27:56.538Z,17.57
2019-03-05T04:30:25.563Z,13.60
2019-03-05T04:32:54.412Z,19.80
2019-03-05T04:35:24.457Z,11.43
2019-03-05T04:37:54.253Z,17.17
2019-03-05T04:40:23.720Z,24.37
2019-03-05T04:42:53.355Z,16.50
2019-03-05T04:45:33.031Z,22.27
2019-03-05T04:48:04.238Z,13.83
2019-03-05T04:50:38.271Z,9.60
2019-03-05T04:53:07.727Z,12.90
2019-03-05T04:55:36.477Z,11.47
2019-03-05T04:58:05.919Z,18.00
2019-03-05T05:00:35.777Z,17.23
2019-03-05T05:03:07.289Z,11.70
2019-03-05T05:05:36.619Z,13.27
2019-03-05T05:08:05.390Z,16.83
2019-03-05T05:10:35.234Z,13.57
2019-03-05T05:13:04.107Z,15.07
2019-03-05T05:15:33.234Z,19.27
2019-03-05T05:18:02.973Z,16.53
2019-03-05T05:20:32.091Z,20.50
2019-03-05T05:23:00.885Z,17.23
2019-03-05T05:25:29.696Z,12.80
2019-03-05T05:27:58.578Z,19.93
2019-03-05T05:30:30.580Z,14.23
2019-03-05T05:32:59.407Z,11.90
2019-03-05T05:35:28.203Z,13.77
2019-03-05T05:37:58.425Z,16.63
2019-03-05T05:40:29.095Z,15.27
2019-03-05T05:42:58.012Z,17.37
2019-03-05T05:45:30.270Z,19.30
2019-03-05T05:48:02.065Z,19.20
2019-03-05T05:50:30.838Z,15.33
2019-03-05T05:52:59.677Z,14.00
2019-03-05T05:55:29.769Z,14.30
2019-03-05T05:57:59.564Z,14.10
2019-03-05T06:00:28.883Z,15.90
2019-03-05T06:02:57.668Z,12.93
2019-03-05T06:05:26.456Z,10.93
2019-03-05T06:07:55.260Z,16.23
2019-03-05T06:10:24.748Z,15.87
2019-03-05T06:12:54.447Z,14.30
2019-03-05T06:15:24.504Z,16.53
2019-03-05T06:17:53.290Z,12.77
2019-03-05T06:20:23.178Z,17.37
2019-03-05T06:22:52.255Z,15.77
2019-03-05T06:25:21.933Z,17.17
2019-03-05T06:27:51.896Z,15.50
2019-03-05T06:30:21.926Z,15.13
2019-03-05T06:32:50.679Z,14.83
2019-03-05T06:35:20.750Z,18.20
2019-03-05T06:37:49.862Z,12.60
2019-03-05T06:40:18.626Z,9.20
2019-03-05T06:42:48.558Z,9.43
2019-03-05T06:45:18.782Z,12.43
2019-03-05T06:47:47.666Z,11.97
2019-03-05T06:50:17.134Z,11.60
2019-03-05T06:52:46.516Z,11.43
2019-03-05T06:55:25.364Z,11.37
2019-03-05T06:57:54.694Z,11.87
2019-03-05T07:00:33.859Z,12.27
2019-03-05T07:03:02.891Z,9.90
2019-03-05T07:05:43.031Z,11.63
2019-03-05T07:08:11.870Z,8.90
2019-03-05T07:10:50.921Z,10.33
2019-03-05T07:13:21.541Z,11.63
2019-03-05T07:16:08.716Z,9.43
2019-03-05T07:18:45.593Z,7.97
2019-03-05T07:21:26.210Z,9.53
2019-03-05T07:24:06.196Z,8.50
2019-03-05T07:26:34.983Z,9.93
2019-03-05T07:29:03.806Z,7.43
2019-03-05T07:31:32.847Z,11.53
2019-03-05T07:34:02.192Z,9.37
2019-03-05T07:36:30.952Z,12.63
2019-03-05T07:38:59.745Z,7.87
2019-03-05T07:41:29.125Z,9.77
2019-03-05T07:43:57.919Z,8.53
2019-03-05T07:46:27.317Z,9.30
2019-03-05T07:48:56.079Z,9.53
2019-03-05T07:51:26.094Z,8.33
2019-03-05T07:53:55.249Z,7.87
2019-03-05T07:56:24.067Z,9.63
2019-03-05T07:58:52.852Z,7.63
2019-03-05T08:01:22.656Z,10.53
2019-03-05T08:03:50.556Z,7.23
2019-03-05T08:06:19.421Z,7.83
2019-03-05T08:08:59.624Z,9.30
2019-03-05T08:11:28.468Z,8.80
2019-03-05T08:16:10.385Z,8.30
2019-03-05T08:18:40.071Z,13.77
2019-03-05T08:21:09.592Z,10.03
2019-03-05T08:23:38.429Z,10.23
2019-03-05T08:26:07.886Z,8.93
2019-03-05T08:28:36.738Z,9.37
2019-03-05T08:31:06.134Z,10.50
2019-03-05T08:33:34.948Z,9.33
2019-03-05T08:36:04.148Z,10.07
2019-03-05T08:38:32.968Z,11.80
2019-03-05T08:41:01.748Z,15.07
2019-03-05T08:43:30.532Z,12.43
2019-03-05T08:45:59.423Z,13.10
2019-03-05T08:48:28.282Z,16.43
2019-03-05T08:50:58.330Z,12.93
2019-03-05T08:53:27.806Z,20.20
2019-03-05T08:55:57.310Z,11.83
2019-03-05T08:58:26.124Z,15.67
2019-03-05T09:00:55.019Z,12.83
2019-03-05T09:03:23.798Z,12.83
2019-03-05T09:05:53.837Z,14.33
2019-03-05T09:08:23.171Z,14.93
2019-03-05T09:10:52.218Z,18.50
2019-03-05T09:13:32.366Z,13.30
2019-03-05T09:15:51.192Z,12.80
2019-03-05T09:18:20.058Z,16.00
2019-03-05T09:20:48.855Z,13.87
2019-03-05T09:23:18.646Z,17.90
2019-03-05T09:25:48.062Z,13.90
2019-03-05T09:28:16.871Z,13.43
2019-03-05T09:30:45.704Z,11.97
2019-03-05T09:33:14.519Z,13.30
2019-03-05T09:35:43.310Z,21.40
2019-03-05T09:38:12.150Z,14.93
2019-03-05T09:40:40.960Z,12.80
2019-03-05T09:43:10.738Z,15.80
2019-03-05T09:45:39.550Z,15.40
2019-03-05T09:48:08.347Z,15.67
2019-03-05T09:50:37.130Z,16.77
2019-03-05T09:53:05.968Z,13.90
2019-03-05T09:55:36.225Z,16.70
2019-03-05T09:58:08.377Z,10.83
2019-03-05T10:00:35.928Z,14.23
2019-03-05T10:03:04.967Z,17.00
2019-03-05T10:05:33.856Z,10.57
2019-03-05T10:08:03.209Z,16.27
2019-03-05T10:10:34.067Z,15.43
2019-03-05T10:13:04.077Z,10.23
2019-03-05T10:15:34.008Z,13.27
2019-03-05T10:18:12.368Z,14.23
2019-03-05T10:20:32.476Z,14.63
2019-03-05T10:23:02.279Z,18.13
2019-03-05T10:25:31.101Z,12.80
2019-03-05T10:27:59.959Z,12.70
2019-03-05T10:30:29.680Z,8.10
2019-03-05T10:32:59.320Z,15.90
2019-03-05T10:35:29.901Z,9.03
2019-03-05T10:37:59.535Z,9.37
2019-03-05T10:40:32.523Z,13.60
2019-03-05T10:43:08.540Z,12.27
2019-03-05T10:45:36.487Z,10.83
2019-03-05T10:48:08.343Z,12.13
2019-03-05T10:50:37.228Z,10.97
2019-03-05T10:53:06.067Z,10.73
2019-03-05T10:55:35.174Z,13.73
2019-03-05T10:58:05.820Z,14.97
2019-03-05T11:00:37.803Z,9.07
2019-03-05T11:03:07.221Z,12.03
2019-03-05T11:05:40.599Z,11.70
2019-03-05T11:08:13.786Z,7.43
2019-03-05T11:10:43.528Z,6.17
2019-03-05T11:13:13.785Z,12.93
2019-03-05T11:15:42.602Z,16.77
2019-03-05T11:18:12.183Z,10.83
2019-03-05T11:20:42.322Z,9.07
2019-03-05T11:23:12.383Z,13.23
2019-03-05T11:25:41.221Z,15.40
2019-03-05T11:28:10.123Z,11.87
2019-03-05T11:30:39.208Z,12.37
2019-03-05T11:33:08.653Z,14.90
2019-03-05T11:35:39.073Z,8.50
2019-03-05T11:38:08.313Z,10.60
2019-03-05T11:40:37.195Z,10.27
2019-03-05T11:43:08.713Z,10.83
2019-03-05T11:45:38.325Z,12.67
2019-03-05T11:48:07.445Z,5.67
2019-03-05T11:50:38.115Z,11.30
2019-03-05T11:53:06.924Z,9.27
2019-03-05T11:55:35.723Z,7.67
2019-03-05T11:58:05.771Z,11.70
2019-03-05T12:01:09.658Z,4.27
2019-03-05T12:03:38.729Z,5.80
2019-03-05T12:06:07.539Z,12.23
2019-03-05T12:08:36.370Z,5.73
2019-03-05T12:11:05.192Z,6.40
2019-03-05T12:13:33.999Z,5.63
2019-03-05T12:16:06.999Z,9.20
2019-03-05T12:18:37.075Z,8.73
2019-03-05T12:21:05.839Z,7.60
2019-03-05T12:23:34.656Z,8.83
2019-03-05T12:26:04.870Z,9.47
2019-03-05T12:28:33.766Z,5.77
2019-03-05T12:31:02.534Z,11.00
2019-03-05T12:33:31.313Z,7.20
2019-03-05T12:36:00.691Z,9.60
2019-03-05T12:38:30.144Z,6.80
2019-03-05T12:40:58.922Z,8.87
2019-03-05T12:43:27.740Z,7.17
2019-03-05T12:45:57.223Z,7.80
2019-03-05T12:48:26.087Z,12.80
2019-03-05T12:50:56.128Z,11.27
2019-03-05T12:53:24.943Z,4.73
2019-03-05T12:55:55.035Z,7.07
2019-03-05T12:58:23.895Z,9.53
2019-03-05T13:00:52.707Z,6.13
2019-03-05T13:03:21.628Z,7.00
2019-03-05T13:05:50.759Z,6.57
2019-03-05T13:08:19.527Z,5.60
2019-03-05T13:10:49.115Z,9.00
2019-03-05T13:13:18.464Z,17.07
2019-03-05T13:15:47.260Z,6.43
2019-03-05T13:18:16.975Z,10.90
2019-03-05T13:20:46.522Z,12.10
2019-03-05T13:23:15.969Z,5.53
2019-03-05T13:25:44.755Z,8.57
2019-03-05T13:28:13.581Z,5.27
2019-03-05T13:30:42.372Z,10.47
2019-03-05T13:33:12.081Z,9.33
2019-03-05T13:35:40.978Z,4.80
2019-03-05T13:38:10.267Z,12.30
2019-03-05T13:40:40.675Z,11.63
2019-03-05T13:43:07.879Z,8.43
2019-03-05T13:45:36.745Z,15.23
2019-03-05T13:48:19.724Z,5.30
2019-03-05T13:51:59.593Z,6.13
2019-03-05T13:55:41.100Z,10.23
2019-03-05T13:58:32.678Z,13.70
2019-03-05T14:01:01.522Z,5.73
2019-03-05T14:03:39.188Z,8.40
2019-03-05T14:06:23.453Z,8.87
2019-03-05T14:09:28.210Z,6.53
2019-03-05T14:11:58.125Z,10.00
2019-03-05T14:14:29.779Z,7.37
2019-03-05T14:17:07.121Z,8.57
2019-03-05T14:19:36.594Z,17.90
2019-03-05T14:22:05.441Z,7.40
2019-03-05T14:24:34.476Z,6.00
2019-03-05T14:27:03.864Z,9.53
2019-03-05T14:29:32.728Z,11.70
2019-03-05T14:32:01.503Z,10.73
2019-03-05T14:34:31.420Z,11.33
2019-03-05T14:37:00.868Z,7.70
2019-03-05T14:39:32.426Z,5.47
2019-03-05T14:42:01.794Z,12.40
2019-03-05T14:44:39.357Z,6.20
2019-03-05T14:47:01.060Z,8.57
2019-03-05T14:49:31.119Z,10.33
2019-03-05T14:52:00.444Z,10.60
2019-03-05T14:54:31.622Z,15.13
2019-03-05T14:57:03.029Z,10.30
2019-03-05T14:59:33.151Z,9.17
2019-03-05T15:02:02.390Z,10.50
2019-03-05T15:04:30.838Z,8.73
2019-03-05T15:06:59.710Z,8.30
2019-03-05T15:09:28.602Z,11.50
2019-03-05T15:11:59.982Z,15.00
2019-03-05T15:14:28.795Z,9.27
2019-03-05T15:16:57.663Z,18.77
2019-03-05T15:19:26.565Z,13.40
2019-03-05T15:21:55.752Z,9.50
2019-03-05T15:24:25.569Z,10.47
2019-03-05T15:26:55.009Z,9.83
2019-03-05T15:29:25.243Z,10.27
2019-03-05T15:31:54.915Z,9.53
2019-03-05T15:34:23.792Z,22.27
2019-03-05T15:36:53.176Z,8.17
2019-03-05T15:39:24.441Z,12.00
2019-03-05T15:41:53.144Z,16.43
2019-03-05T15:44:21.957Z,9.87
2019-03-05T15:46:53.048Z,7.73
2019-03-05T15:49:21.954Z,16.03
2019-03-05T15:51:50.760Z,18.07
2019-03-05T15:54:22.385Z,9.00
2019-03-05T15:56:51.673Z,9.00
2019-03-05T15:59:20.544Z,11.73
2019-03-05T16:01:50.108Z,12.00
2019-03-05T16:04:19.055Z,13.03
2019-03-05T16:06:49.724Z,8.67
2019-03-05T16:09:17.846Z,5.37
2019-03-05T16:11:47.982Z,6.27
2019-03-05T16:14:16.854Z,9.17
2019-03-05T16:16:45.662Z,6.73
2019-03-05T16:19:16.575Z,9.97
2019-03-05T16:21:44.770Z,9.70
2019-03-05T16:24:13.589Z,10.73
2019-03-05T16:26:42.655Z,6.60
2019-03-05T16:29:11.838Z,6.97
2019-03-05T16:31:56.110Z,7.10
2019-03-05T16:34:30.502Z,7.50
2019-03-05T16:37:07.110Z,12.53
2019-03-05T16:39:47.625Z,6.30
2019-03-05T16:42:26.666Z,14.83
2019-03-05T16:45:03.611Z,13.37
2019-03-05T16:48:10.442Z,14.73
2019-03-05T16:50:44.930Z,9.53
2019-03-05T16:54:18.408Z,10.50
2019-03-05T16:57:06.763Z,17.53
2019-03-05T16:59:40.899Z,11.90
2019-03-05T17:02:13.982Z,12.27
2019-03-05T17:04:51.073Z,14.77
2019-03-05T17:07:24.981Z,20.47
2019-03-05T17:10:58.435Z,20.93
2019-03-05T17:13:27.331Z,9.07
2019-03-05T17:15:56.119Z,9.77
2019-03-05T17:18:25.455Z,9.53
2019-03-05T17:20:55.006Z,11.93
2019-03-05T17:23:25.629Z,12.90
2019-03-05T17:25:54.700Z,13.67
2019-03-05T17:28:23.571Z,16.97
2019-03-05T17:30:52.398Z,13.10
2019-03-05T17:33:22.203Z,13.73
2019-03-05T17:35:52.481Z,17.83
2019-03-05T17:38:21.336Z,11.47
2019-03-05T17:40:51.702Z,14.67
2019-03-05T17:43:20.521Z,13.97
2019-03-05T17:45:49.427Z,12.90
2019-03-05T17:48:18.309Z,12.00
2019-03-05T17:50:47.647Z,8.93
2019-03-05T17:53:17.073Z,6.87
2019-03-05T17:55:46.488Z,7.87
2019-03-05T17:58:17.698Z,7.90
2019-03-05T18:00:46.707Z,12.70
2019-03-05T18:03:16.147Z,16.00
2019-03-05T18:05:49.321Z,13.90
2019-03-05T18:08:24.657Z,11.97
2019-03-05T18:10:53.516Z,14.13
2019-03-05T18:13:22.810Z,9.97
2019-03-05T18:15:52.660Z,7.53
2019-03-05T18:18:22.360Z,14.50
2019-03-05T18:20:51.188Z,13.23
2019-03-05T18:23:19.997Z,12.97
2019-03-05T18:25:50.372Z,12.03
2019-03-05T18:28:19.375Z,8.13
2019-03-05T18:30:49.972Z,12.20
2019-03-05T18:33:21.012Z,16.53
2019-03-05T18:35:50.739Z,8.07
2019-03-05T18:38:19.583Z,16.27
2019-03-05T18:40:50.075Z,6.80
2019-03-05T18:43:18.942Z,12.63
2019-03-05T18:45:47.732Z,12.90
2019-03-05T18:48:18.496Z,15.47
2019-03-05T18:50:47.671Z,11.40
2019-03-05T18:53:17.066Z,13.80
2019-03-05T18:55:49.792Z,13.30
2019-03-05T18:58:20.598Z,10.03
2019-03-05T19:00:50.075Z,17.30
2019-03-05T19:03:19.823Z,15.93
2019-03-05T19:05:49.126Z,10.43
2019-03-05T19:08:17.951Z,11.00
2019-03-05T19:10:47.086Z,13.80
2019-03-05T19:13:15.895Z,18.77
2019-03-05T19:15:45.524Z,14.87
2019-03-05T19:18:14.341Z,13.97
2019-03-05T19:20:43.516Z,11.03
2019-03-05T19:23:12.296Z,13.00
2019-03-05T19:25:41.129Z,12.03
2019-03-05T19:28:11.482Z,21.50
2019-03-05T19:30:39.251Z,13.67
2019-03-05T19:33:08.085Z,11.20
2019-03-05T19:35:36.906Z,10.10
2019-03-05T19:38:05.867Z,9.90
2019-03-05T19:40:35.349Z,10.20
2019-03-05T19:43:04.155Z,14.87
2019-03-05T19:45:33.535Z,11.93
2019-03-05T19:48:03.007Z,12.63
2019-03-05T19:50:31.814Z,18.00
2019-03-05T19:53:01.595Z,18.17
2019-03-05T19:55:30.892Z,18.17
2019-03-05T19:58:05.161Z,16.03
2019-03-05T20:00:35.825Z,16.60
2019-03-05T20:03:04.655Z,18.37
2019-03-05T20:05:33.467Z,20.10
2019-03-05T20:08:02.329Z,16.13
2019-03-05T20:10:31.188Z,13.73
2019-03-05T20:13:00.140Z,11.47
2019-03-05T20:15:28.921Z,15.73
2019-03-05T20:17:59.423Z,18.87
2019-03-05T20:20:28.245Z,16.13
2019-03-05T20:22:58.262Z,15.20
2019-03-05T20:25:28.348Z,13.70
2019-03-05T20:27:58.153Z,13.27
2019-03-05T20:30:27.487Z,20.77
2019-03-05T20:32:56.338Z,18.73
2019-03-05T20:35:25.663Z,16.10
2019-03-05T20:37:55.472Z,13.87
2019-03-05T20:40:25.209Z,11.73
2019-03-05T20:42:55.683Z,16.87
2019-03-05T20:45:26.816Z,17.83
2019-03-05T20:47:55.643Z,11.83
2019-03-05T20:50:24.439Z,10.80
2019-03-05T20:52:53.359Z,17.60
2019-03-05T20:55:23.158Z,16.77
2019-03-05T20:57:53.136Z,19.17
2019-03-05T21:00:28.217Z,13.40
2019-03-05T21:02:58.979Z,11.67
2019-03-05T21:05:31.389Z,11.60
2019-03-05T21:08:01.229Z,9.37
2019-03-05T21:10:30.195Z,14.67
2019-03-05T21:12:59.034Z,11.40
2019-03-05T21:15:28.202Z,12.53
2019-03-05T21:17:57.852Z,14.63
2019-03-05T21:20:28.401Z,13.37
2019-03-05T21:22:57.394Z,17.60
2019-03-05T21:25:26.224Z,13.20
2019-03-05T21:27:55.111Z,15.07
2019-03-05T21:30:24.074Z,20.03
2019-03-05T21:32:53.439Z,9.63
2019-03-05T21:35:22.755Z,17.23
2019-03-05T21:37:51.571Z,15.17
2019-03-05T21:40:23.071Z,11.70
2019-03-05T21:42:51.874Z,13.60
2019-03-05T21:45:24.582Z,13.10
2019-03-05T21:47:54.120Z,14.00
2019-03-05T21:50:23.659Z,13.47
2019-03-05T21:52:53.316Z,15.63
2019-03-05T21:55:22.843Z,23.60
2019-03-05T21:57:51.656Z,17.70
2019-03-05T22:00:23.077Z,19.13
2019-03-05T22:02:51.880Z,14.63
2019-03-05T22:05:20.771Z,16.97
2019-03-05T22:07:49.604Z,8.93
2019-03-05T22:10:21.008Z,12.10
2019-03-05T22:12:49.803Z,11.30
2019-03-05T22:15:19.334Z,15.80
2019-03-05T22:17:48.164Z,13.13
2019-03-05T22:20:16.988Z,9.70
2019-03-05T22:22:45.875Z,11.87
2019-03-05T22:25:16.367Z,8.93
2019-03-05T22:27:46.005Z,7.60
2019-03-05T22:30:18.654Z,14.33
2019-03-05T22:32:48.293Z,9.97
2019-03-05T22:35:18.874Z,17.70
2019-03-05T22:37:48.318Z,16.53
2019-03-05T22:40:18.114Z,7.20
2019-03-05T22:42:47.654Z,10.63
2019-03-05T22:45:18.889Z,14.43
2019-03-05T22:47:49.680Z,9.10
2019-03-05T22:50:19.446Z,8.73
2019-03-05T22:52:48.789Z,13.97
2019-03-05T22:55:18.223Z,13.87
2019-03-05T22:57:47.026Z,11.83
2019-03-05T23:00:29.970Z,12.37
2019-03-05T23:02:59.112Z,7.47
2019-03-05T23:05:29.460Z,11.63
2019-03-05T23:07:58.269Z,15.13
2019-03-05T23:10:28.351Z,14.03
2019-03-05T23:12:56.874Z,9.30
2019-03-05T23:15:26.611Z,15.43
2019-03-05T23:17:57.092Z,8.73
2019-03-05T23:20:25.917Z,10.13
2019-03-05T23:22:56.956Z,11.70
2019-03-05T23:25:26.318Z,11.60
2019-03-05T23:27:55.124Z,13.63
2019-03-05T23:30:25.224Z,8.50
2019-03-05T23:32:54.654Z,13.13
2019-03-05T23:35:23.454Z,12.13
2019-03-05T23:37:52.844Z,27.73
2019-03-05T23:40:21.655Z,12.00
2019-03-05T23:42:50.500Z,10.53
2019-03-05T23:45:21.347Z,10.23
2019-03-05T23:47:50.152Z,7.07
2019-03-05T23:50:18.955Z,7.43
2019-03-05T23:52:47.778Z,10.03
2019-03-05T23:55:16.561Z,12.20
2019-03-05T23:57:46.332Z,17.23
